Time;durP1;ratioP1;P1;durP2;ratioP2;P2;SDS_P1;SDS_P2;PMS_P1;PMS_P2;Temp;Humidity;BMP_temperature;BMP_pressure;BME280_temperature;BME280_humidity;BME280_pressure;Samples;Min_cycle;Max_cycle;Signal;HPM_P1;HPM_P2
2022/02/21 00:01:28;;;;;;;10.88;6.65;;;;;;;;;;143724;580;46013;-65
2022/02/21 00:03:55;;;;;;;10.40;5.60;;;;;;;;;;143728;616;45019;-66
2022/02/21 00:06:22;;;;;;;8.07;5.10;;;;;;;;;;143728;570;46022;-65
2022/02/21 00:08:49;;;;;;;9.77;5.30;;;;;;;;;;143727;605;46019;-66
2022/02/21 00:11:16;;;;;;;8.93;5.30;;;;;;;;;;143725;583;46012;-65
2022/02/21 00:13:43;;;;;;;9.40;6.47;;;;;;;;;;143727;588;45018;-66
2022/02/21 00:16:10;;;;;;;6.65;5.20;;;;;;;;;;143728;672;46022;-65
2022/02/21 00:18:37;;;;;;;8.88;4.87;;;;;;;;;;143727;599;46018;-66
2022/02/21 00:21:05;;;;;;;9.55;5.15;;;;;;;;;;143725;599;46012;-66
2022/02/21 00:23:32;;;;;;;7.97;5.15;;;;;;;;;;143728;613;45018;-66
2022/02/21 00:25:59;;;;;;;7.50;4.35;;;;;;;;;;143729;612;46023;-66
2022/02/21 00:28:26;;;;;;;9.10;5.10;;;;;;;;;;143725;650;46018;-65
2022/02/21 00:30:53;;;;;;;8.82;5.32;;;;;;;;;;143725;608;46013;-66
2022/02/21 00:33:20;;;;;;;9.88;4.97;;;;;;;;;;143729;599;45019;-65
2022/02/21 00:35:47;;;;;;;6.30;4.15;;;;;;;;;;143729;662;46022;-66
2022/02/21 00:38:14;;;;;;;7.20;4.57;;;;;;;;;;143727;583;46019;-65
2022/02/21 00:40:41;;;;;;;7.65;4.75;;;;;;;;;;143725;644;46012;-66
2022/02/21 00:43:08;;;;;;;7.62;4.90;;;;;;;;;;143728;578;45018;-65
2022/02/21 00:45:35;;;;;;;10.30;4.82;;;;;;;;;;143727;594;47022;-65
2022/02/21 00:48:02;;;;;;;7.25;4.90;;;;;;;;;;143727;586;46018;-66
2022/02/21 00:50:29;;;;;;;9.27;5.03;;;;;;;;;;143724;606;46012;-65
2022/02/21 00:52:56;;;;;;;7.85;5.15;;;;;;;;;;143727;583;45018;-65
2022/02/21 00:55:23;;;;;;;7.70;4.90;;;;;;;;;;143729;644;46023;-65
2022/02/21 00:57:50;;;;;;;6.93;4.90;;;;;;;;;;143724;634;47020;-65
2022/02/21 01:00:18;;;;;;;8.07;4.87;;;;;;;;;;143726;625;46012;-66
2022/02/21 01:02:45;;;;;;;10.77;5.35;;;;;;;;;;143728;569;45019;-66
2022/02/21 01:05:12;;;;;;;9.27;5.72;;;;;;;;;;143729;569;46022;-65
2022/02/21 01:07:39;;;;;;;9.13;5.12;;;;;;;;;;143727;582;46020;-66
2022/02/21 01:10:07;;;;;;;7.03;5.15;;;;;;;;;;143726;582;46012;-65
2022/02/21 01:12:34;;;;;;;13.30;6.18;;;;;;;;;;143729;577;45018;-65
2022/02/21 01:15:01;;;;;;;11.35;5.37;;;;;;;;;;143729;631;46022;-66
2022/02/21 01:17:28;;;;;;;8.60;5.20;;;;;;;;;;143729;622;46018;-65
2022/02/21 01:19:55;;;;;;;9.38;5.15;;;;;;;;;;143726;588;46012;-66
2022/02/21 01:22:22;;;;;;;6.32;4.95;;;;;;;;;;143729;650;45018;-66
2022/02/21 01:24:49;;;;;;;7.10;4.80;;;;;;;;;;143730;571;46023;-65
2022/02/21 01:27:16;;;;;;;8.57;5.03;;;;;;;;;;143726;626;46018;-66
2022/02/21 01:29:44;;;;;;;7.72;5.15;;;;;;;;;;143726;599;46012;-67
2022/02/21 01:32:11;;;;;;;10.02;4.87;;;;;;;;;;143728;677;45019;-65
2022/02/21 01:34:38;;;;;;;10.35;5.47;;;;;;;;;;143727;566;46022;-66
2022/02/21 01:37:06;;;;;;;10.18;6.20;;;;;;;;;;143725;594;46018;-66
2022/02/21 01:39:33;;;;;;;9.88;5.80;;;;;;;;;;143725;586;46012;-65
2022/02/21 01:42:00;;;;;;;9.98;6.00;;;;;;;;;;143729;592;45018;-66
2022/02/21 01:44:41;;;;;;;12.90;6.10;;;;;;;;;;143729;636;46022;-66
2022/02/21 01:47:10;;;;;;;11.52;6.78;;;;;;;;;;143728;603;47018;-65
2022/02/21 01:49:37;;;;;;;13.60;6.53;;;;;;;;;;143726;646;46012;-65
2022/02/21 01:52:06;;;;;;;10.00;5.55;;;;;;;;;;143729;573;45018;-66
2022/02/21 01:54:33;;;;;;;7.15;4.65;;;;;;;;;;143729;666;46023;-66
2022/02/21 01:57:00;;;;;;;8.82;4.87;;;;;;;;;;143728;622;46020;-66
2022/02/21 01:59:27;;;;;;;8.10;5.12;;;;;;;;;;143725;577;46012;-65
2022/02/21 02:01:55;;;;;;;8.60;5.18;;;;;;;;;;143731;622;45019;-66
2022/02/21 02:04:22;;;;;;;7.72;4.95;;;;;;;;;;143729;603;46022;-66
2022/02/21 02:06:50;;;;;;;10.55;6.03;;;;;;;;;;143727;578;46018;-67
2022/02/21 02:09:17;;;;;;;9.00;6.25;;;;;;;;;;143726;593;46013;-65
2022/02/21 02:11:44;;;;;;;9.98;5.28;;;;;;;;;;143728;615;45018;-66
2022/02/21 02:14:32;;;;;;;8.63;5.82;;;;;;;;;;143729;569;46022;-66
2022/02/21 02:17:10;;;;;;;12.52;6.40;;;;;;;;;;143726;633;46023;-66
2022/02/21 02:19:38;;;;;;;10.88;6.20;;;;;;;;;;143726;658;46012;-66
2022/02/21 02:22:21;;;;;;;9.45;5.28;;;;;;;;;;143730;578;45018;-66
2022/02/21 02:24:50;;;;;;;10.13;5.75;;;;;;;;;;143730;736;46023;-66
2022/02/21 02:27:18;;;;;;;10.32;5.70;;;;;;;;;;143728;569;46018;-66
2022/02/21 02:29:47;;;;;;;9.80;6.00;;;;;;;;;;143723;574;46040;-66
2022/02/21 02:32:14;;;;;;;9.35;5.78;;;;;;;;;;143728;654;46015;-67
2022/02/21 02:34:43;;;;;;;9.80;5.40;;;;;;;;;;143729;653;46020;-65
2022/02/21 02:37:11;;;;;;;7.65;5.03;;;;;;;;;;143728;573;46021;-66
2022/02/21 02:39:38;;;;;;;9.40;5.12;;;;;;;;;;143726;649;46012;-66
2022/02/21 02:42:05;;;;;;;9.98;5.43;;;;;;;;;;143731;639;45020;-65
2022/02/21 02:44:32;;;;;;;7.80;5.07;;;;;;;;;;143731;620;46020;-66
2022/02/21 02:47:00;;;;;;;8.60;5.37;;;;;;;;;;143731;643;46021;-66
2022/02/21 02:49:26;;;;;;;8.07;5.10;;;;;;;;;;143727;586;46012;-66
2022/02/21 02:51:54;;;;;;;8.93;4.95;;;;;;;;;;143734;571;45020;-66
2022/02/21 02:54:21;;;;;;;10.73;5.43;;;;;;;;;;143731;593;46021;-66
2022/02/21 02:56:48;;;;;;;8.05;5.12;;;;;;;;;;143728;615;46020;-65
2022/02/21 02:59:15;;;;;;;9.07;5.90;;;;;;;;;;143727;584;46012;-66
2022/02/21 03:01:42;;;;;;;11.50;5.22;;;;;;;;;;143731;574;45021;-66
2022/02/21 03:04:09;;;;;;;11.55;5.20;;;;;;;;;;143731;610;46020;-67
2022/02/21 03:06:37;;;;;;;8.05;5.32;;;;;;;;;;143728;657;46022;-66
2022/02/21 03:09:04;;;;;;;9.30;4.78;;;;;;;;;;143727;646;46012;-66
2022/02/21 03:11:31;;;;;;;9.60;5.50;;;;;;;;;;143731;576;45020;-66
2022/02/21 03:13:59;;;;;;;14.75;7.05;;;;;;;;;;143729;565;46020;-66
2022/02/21 03:16:26;;;;;;;10.07;5.80;;;;;;;;;;143729;642;46020;-66
2022/02/21 03:18:54;;;;;;;7.87;5.28;;;;;;;;;;143727;644;46012;-65
2022/02/21 03:21:22;;;;;;;8.82;4.68;;;;;;;;;;143730;603;46014;-66
2022/02/21 03:23:50;;;;;;;28.42;7.47;;;;;;;;;;143730;589;46021;-66
2022/02/21 03:26:17;;;;;;;6.28;4.82;;;;;;;;;;143728;591;46020;-67
2022/02/21 03:28:44;;;;;;;10.57;5.25;;;;;;;;;;143727;631;46012;-66
2022/02/21 03:31:12;;;;;;;6.95;4.50;;;;;;;;;;143731;592;45021;-66
2022/02/21 03:33:39;;;;;;;8.93;5.93;;;;;;;;;;143731;566;46020;-66
2022/02/21 03:36:06;;;;;;;9.45;5.18;;;;;;;;;;143730;570;46020;-66
2022/02/21 03:38:33;;;;;;;10.15;5.03;;;;;;;;;;143727;656;46012;-66
2022/02/21 03:41:00;;;;;;;9.40;4.97;;;;;;;;;;143730;593;45020;-66
2022/02/21 03:43:27;;;;;;;7.32;5.12;;;;;;;;;;143731;569;46020;-66
2022/02/21 03:45:55;;;;;;;11.32;5.75;;;;;;;;;;143729;596;46020;-67
2022/02/21 03:48:22;;;;;;;9.15;5.18;;;;;;;;;;143727;581;46012;-67
2022/02/21 03:50:49;;;;;;;8.65;5.30;;;;;;;;;;143729;580;46020;-67
2022/02/21 03:53:16;;;;;;;10.82;5.28;;;;;;;;;;143730;623;46021;-67
2022/02/21 03:55:43;;;;;;;8.88;4.70;;;;;;;;;;143729;599;46020;-66
2022/02/21 03:58:11;;;;;;;10.05;5.87;;;;;;;;;;143727;611;46012;-67
2022/02/21 04:00:38;;;;;;;10.55;5.22;;;;;;;;;;143731;602;45036;-67
2022/02/21 04:03:06;;;;;;;14.70;6.90;;;;;;;;;;143729;571;46020;-68
2022/02/21 04:05:33;;;;;;;11.95;7.00;;;;;;;;;;143727;591;46020;-67
2022/02/21 04:08:00;;;;;;;9.60;5.60;;;;;;;;;;143727;606;46010;-67
2022/02/21 04:10:27;;;;;;;14.15;6.05;;;;;;;;;;143730;566;45020;-68
2022/02/21 04:12:54;;;;;;;12.63;7.07;;;;;;;;;;143732;564;46020;-66
2022/02/21 04:15:21;;;;;;;17.98;7.18;;;;;;;;;;143728;651;46021;-67
2022/02/21 04:17:50;;;;;;;13.93;6.72;;;;;;;;;;143727;591;46010;-67
2022/02/21 04:20:21;;;;;;;12.43;6.45;;;;;;;;;;143731;566;45020;-67
2022/02/21 04:22:48;;;;;;;15.18;9.93;;;;;;;;;;143731;614;46021;-67
2022/02/21 04:25:16;;;;;;;15.23;8.38;;;;;;;;;;143727;590;46020;-67
2022/02/21 04:27:51;;;;;;;12.68;7.53;;;;;;;;;;143727;582;46010;-67
2022/02/21 04:30:21;;;;;;;14.43;8.25;;;;;;;;;;143729;584;45908;-66
2022/02/21 04:32:48;;;;;;;14.23;7.60;;;;;;;;;;143731;595;46020;-67
2022/02/21 04:35:17;;;;;;;14.65;7.65;;;;;;;;;;143729;592;46020;-67
2022/02/21 04:37:45;;;;;;;15.18;8.18;;;;;;;;;;143726;612;47010;-67
2022/02/21 04:40:17;;;;;;;14.38;7.43;;;;;;;;;;143730;595;45021;-67
2022/02/21 04:42:44;;;;;;;14.23;7.37;;;;;;;;;;143731;566;46020;-67
2022/02/21 04:45:11;;;;;;;14.98;7.43;;;;;;;;;;143728;619;46021;-66
2022/02/21 04:47:38;;;;;;;11.40;6.43;;;;;;;;;;143727;673;46010;-67
2022/02/21 04:50:07;;;;;;;14.23;7.18;;;;;;;;;;143730;624;45020;-68
2022/02/21 04:52:36;;;;;;;12.98;6.00;;;;;;;;;;143732;588;46021;-67
2022/02/21 04:55:04;;;;;;;10.10;5.50;;;;;;;;;;143728;570;46020;-67
2022/02/21 04:57:31;;;;;;;11.48;6.10;;;;;;;;;;143727;590;46010;-68
2022/02/21 04:59:58;;;;;;;13.30;6.55;;;;;;;;;;143731;621;45021;-67
2022/02/21 05:02:25;;;;;;;14.30;6.37;;;;;;;;;;143732;611;46020;-67
2022/02/21 05:04:52;;;;;;;13.15;7.18;;;;;;;;;;143729;585;46022;-67
2022/02/21 05:07:19;;;;;;;15.70;6.20;;;;;;;;;;143726;569;46011;-67
2022/02/21 05:09:46;;;;;;;10.63;7.40;;;;;;;;;;143730;591;45021;-67
2022/02/21 05:12:14;;;;;;;11.45;5.85;;;;;;;;;;143731;641;46020;-67
2022/02/21 05:14:41;;;;;;;13.77;10.98;;;;;;;;;;143729;659;46021;-67
2022/02/21 05:17:08;;;;;;;17.55;10.85;;;;;;;;;;143726;572;46010;-68
2022/02/21 05:19:35;;;;;;;12.63;7.43;;;;;;;;;;143731;580;45037;-67
2022/02/21 05:22:03;;;;;;;13.40;5.68;;;;;;;;;;143729;600;46021;-67
2022/02/21 05:24:29;;;;;;;11.68;6.90;;;;;;;;;;143728;591;46020;-67
2022/02/21 05:26:56;;;;;;;12.57;7.20;;;;;;;;;;143727;603;46010;-66
2022/02/21 05:29:24;;;;;;;12.80;6.18;;;;;;;;;;143730;564;46014;-67
2022/02/21 05:31:51;;;;;;;12.60;6.28;;;;;;;;;;143730;602;46021;-67
2022/02/21 05:34:18;;;;;;;15.25;6.90;;;;;;;;;;143728;569;46020;-67
2022/02/21 05:36:45;;;;;;;10.38;5.95;;;;;;;;;;143727;570;46010;-67
2022/02/21 05:39:12;;;;;;;15.30;7.50;;;;;;;;;;143731;676;45021;-66
2022/02/21 05:41:39;;;;;;;14.13;7.05;;;;;;;;;;143731;574;46020;-67
2022/02/21 05:44:06;;;;;;;12.88;6.37;;;;;;;;;;143729;574;46015;-68
2022/02/21 05:46:35;;;;;;;14.00;7.40;;;;;;;;;;143727;564;46010;-67
2022/02/21 05:49:02;;;;;;;11.68;7.97;;;;;;;;;;143730;575;46020;-68
2022/02/21 05:51:29;;;;;;;12.57;7.20;;;;;;;;;;143730;591;46021;-67
2022/02/21 05:53:56;;;;;;;18.58;9.27;;;;;;;;;;143729;595;46020;-67
2022/02/21 05:56:23;;;;;;;28.60;13.52;;;;;;;;;;143727;600;46010;-67
2022/02/21 05:58:51;;;;;;;25.33;12.23;;;;;;;;;;143731;609;45021;-67
2022/02/21 06:01:18;;;;;;;20.80;13.43;;;;;;;;;;143731;576;46020;-66
2022/02/21 06:03:45;;;;;;;26.62;15.50;;;;;;;;;;143729;611;46020;-66
2022/02/21 06:06:11;;;;;;;22.37;12.88;;;;;;;;;;143726;635;46011;-67
2022/02/21 06:08:38;;;;;;;29.10;14.50;;;;;;;;;;143731;582;45021;-67
2022/02/21 06:11:06;;;;;;;24.27;12.60;;;;;;;;;;143729;580;46020;-66
2022/02/21 06:13:32;;;;;;;18.98;10.85;;;;;;;;;;143727;586;46021;-67
2022/02/21 06:16:00;;;;;;;26.87;11.85;;;;;;;;;;143726;578;46010;-67
2022/02/21 06:18:27;;;;;;;18.40;10.32;;;;;;;;;;143732;603;45020;-66
2022/02/21 06:20:55;;;;;;;25.25;14.70;;;;;;;;;;143729;581;46020;-65
2022/02/21 06:23:22;;;;;;;26.08;13.18;;;;;;;;;;143727;570;46021;-67
2022/02/21 06:25:49;;;;;;;29.40;15.57;;;;;;;;;;143727;672;46010;-66
2022/02/21 06:28:16;;;;;;;32.90;15.93;;;;;;;;;;143731;577;45021;-66
2022/02/21 06:30:43;;;;;;;34.40;17.92;;;;;;;;;;143730;581;46021;-66
2022/02/21 06:33:10;;;;;;;35.30;17.35;;;;;;;;;;143726;588;47022;-66
2022/02/21 06:35:38;;;;;;;32.33;17.08;;;;;;;;;;143726;573;46011;-67
2022/02/21 06:38:05;;;;;;;37.50;19.52;;;;;;;;;;143731;599;46021;-67
2022/02/21 06:40:32;;;;;;;34.83;18.25;;;;;;;;;;143730;616;46020;-70
2022/02/21 06:42:59;;;;;;;29.75;18.25;;;;;;;;;;143726;605;48022;-69
2022/02/21 06:45:27;;;;;;;19.77;13.18;;;;;;;;;;143727;588;46010;-69
2022/02/21 06:47:55;;;;;;;20.65;11.55;;;;;;;;;;143731;659;45020;-70
2022/02/21 06:50:22;;;;;;;22.62;14.90;;;;;;;;;;143730;593;46020;-69
2022/02/21 06:52:49;;;;;;;26.37;15.13;;;;;;;;;;143730;586;46020;-68
2022/02/21 06:55:16;;;;;;;26.27;12.35;;;;;;;;;;143727;642;46010;-69
2022/02/21 06:57:46;;;;;;;14.60;8.20;;;;;;;;;;143730;581;45020;-69
2022/02/21 07:00:14;;;;;;;14.98;6.62;;;;;;;;;;143730;661;46021;-70
2022/02/21 07:02:41;;;;;;;16.83;7.50;;;;;;;;;;143729;575;46020;-70
2022/02/21 07:05:09;;;;;;;17.05;6.62;;;;;;;;;;143727;705;46010;-70
2022/02/21 07:07:37;;;;;;;23.45;9.13;;;;;;;;;;143730;570;45021;-70
2022/02/21 07:10:05;;;;;;;16.50;7.97;;;;;;;;;;143731;585;46020;-70
2022/02/21 07:12:32;;;;;;;16.10;8.20;;;;;;;;;;143728;611;46020;-71
2022/02/21 07:14:59;;;;;;;13.23;8.52;;;;;;;;;;143726;743;46010;-71
2022/02/21 07:17:26;;;;;;;22.98;11.52;;;;;;;;;;143731;585;45020;-69
2022/02/21 07:19:55;;;;;;;20.88;11.30;;;;;;;;;;143729;575;46020;-70
2022/02/21 07:22:22;;;;;;;21.33;10.85;;;;;;;;;;143727;590;46021;-69
2022/02/21 07:24:49;;;;;;;24.80;12.63;;;;;;;;;;143725;601;46010;-68
2022/02/21 07:27:16;;;;;;;23.35;13.73;;;;;;;;;;143728;586;45020;-68
2022/02/21 07:29:43;;;;;;;22.13;11.65;;;;;;;;;;143729;688;46021;-68
2022/02/21 07:32:10;;;;;;;30.37;10.85;;;;;;;;;;143727;569;46020;-68
2022/02/21 07:34:37;;;;;;;21.92;10.02;;;;;;;;;;143724;611;46010;-67
2022/02/21 07:37:06;;;;;;;28.92;12.32;;;;;;;;;;143724;574;46018;-67
2022/02/21 07:39:33;;;;;;;17.17;8.35;;;;;;;;;;143729;564;46020;-68
2022/02/21 07:42:00;;;;;;;24.15;9.38;;;;;;;;;;143729;585;46020;-69
2022/02/21 07:44:27;;;;;;;19.37;8.60;;;;;;;;;;143725;603;46010;-68
2022/02/21 07:46:54;;;;;;;13.88;8.13;;;;;;;;;;143728;579;46020;-69
2022/02/21 07:49:21;;;;;;;19.85;8.77;;;;;;;;;;143728;566;46020;-68
2022/02/21 07:51:48;;;;;;;17.25;9.45;;;;;;;;;;143727;722;46021;-69
2022/02/21 07:54:15;;;;;;;17.27;9.93;;;;;;;;;;143725;633;46010;-69
2022/02/21 07:56:43;;;;;;;25.52;12.18;;;;;;;;;;143726;909;46020;-68
2022/02/21 07:59:10;;;;;;;28.98;16.08;;;;;;;;;;143728;614;46021;-68
2022/02/21 08:01:37;;;;;;;23.90;15.38;;;;;;;;;;143726;736;46020;-67
2022/02/21 08:04:04;;;;;;;30.08;16.08;;;;;;;;;;143725;726;46010;-68
2022/02/21 08:06:32;;;;;;;20.65;13.80;;;;;;;;;;143729;585;45021;-68
2022/02/21 08:08:59;;;;;;;19.02;10.73;;;;;;;;;;143727;614;46020;-68
2022/02/21 08:11:26;;;;;;;14.15;11.10;;;;;;;;;;143728;585;46020;-68
2022/02/21 08:13:54;;;;;;;23.48;11.73;;;;;;;;;;143725;622;47010;-68
2022/02/21 08:16:22;;;;;;;24.35;12.32;;;;;;;;;;143728;610;45020;-69
2022/02/21 08:18:49;;;;;;;13.93;9.27;;;;;;;;;;143727;585;46020;-68
2022/02/21 08:21:16;;;;;;;17.65;8.20;;;;;;;;;;143726;570;46021;-68
2022/02/21 08:23:43;;;;;;;19.98;10.27;;;;;;;;;;143725;582;46010;-68
2022/02/21 08:26:10;;;;;;;15.88;8.52;;;;;;;;;;143728;601;45020;-70
2022/02/21 08:28:37;;;;;;;20.40;9.30;;;;;;;;;;143730;580;46020;-68
2022/02/21 08:31:04;;;;;;;15.85;9.00;;;;;;;;;;143730;616;46020;-69
2022/02/21 08:33:31;;;;;;;10.50;6.85;;;;;;;;;;143721;569;46020;-70
2022/02/21 08:35:59;;;;;;;9.13;6.00;;;;;;;;;;143725;597;46909;-68
2022/02/21 08:38:26;;;;;;;12.27;6.93;;;;;;;;;;143728;564;46020;-70
2022/02/21 08:40:53;;;;;;;9.02;5.25;;;;;;;;;;143726;679;46020;-69
2022/02/21 08:43:20;;;;;;;7.90;5.00;;;;;;;;;;143724;571;46010;-71
2022/02/21 08:45:48;;;;;;;9.38;5.20;;;;;;;;;;143729;613;45020;-71
2022/02/21 08:48:15;;;;;;;21.50;8.75;;;;;;;;;;143728;596;46020;-70
2022/02/21 08:50:42;;;;;;;25.80;9.77;;;;;;;;;;143726;605;46021;-71
2022/02/21 08:53:10;;;;;;;18.77;10.15;;;;;;;;;;143725;570;46010;-70
2022/02/21 08:55:37;;;;;;;25.90;10.32;;;;;;;;;;143729;607;45020;-70
2022/02/21 08:58:04;;;;;;;21.45;10.30;;;;;;;;;;143729;585;46021;-69
2022/02/21 09:00:31;;;;;;;21.77;9.70;;;;;;;;;;143727;569;46020;-69
2022/02/21 09:02:58;;;;;;;13.88;9.00;;;;;;;;;;143723;613;47010;-67
2022/02/21 09:05:25;;;;;;;17.40;9.63;;;;;;;;;;143730;564;45021;-69
2022/02/21 09:07:53;;;;;;;20.08;9.75;;;;;;;;;;143728;564;46020;-70
2022/02/21 09:10:20;;;;;;;14.35;8.52;;;;;;;;;;143727;660;46020;-70
2022/02/21 09:12:47;;;;;;;19.67;8.55;;;;;;;;;;143727;597;46010;-70
2022/02/21 09:15:14;;;;;;;23.85;9.13;;;;;;;;;;143728;580;45021;-69
2022/02/21 09:17:41;;;;;;;19.92;8.38;;;;;;;;;;143730;565;46020;-70
2022/02/21 09:20:08;;;;;;;17.90;9.45;;;;;;;;;;143727;609;46022;-68
2022/02/21 09:22:35;;;;;;;22.73;9.40;;;;;;;;;;143732;640;46010;-70
2022/02/21 09:25:02;;;;;;;17.73;9.25;;;;;;;;;;143728;569;45018;-71
2022/02/21 09:27:29;;;;;;;14.25;8.63;;;;;;;;;;143728;602;46023;-70
2022/02/21 09:29:56;;;;;;;19.90;8.93;;;;;;;;;;143726;589;46018;-70
2022/02/21 09:32:23;;;;;;;14.63;8.45;;;;;;;;;;143725;563;46010;-69
2022/02/21 09:34:52;;;;;;;16.37;8.27;;;;;;;;;;143725;600;46019;-68
2022/02/21 09:37:19;;;;;;;20.65;9.95;;;;;;;;;;143728;631;46022;-69
2022/02/21 09:39:47;;;;;;;18.20;8.45;;;;;;;;;;143726;636;47018;-68
2022/02/21 09:42:14;;;;;;;20.37;8.73;;;;;;;;;;143725;606;46010;-69
2022/02/21 09:44:41;;;;;;;18.92;8.75;;;;;;;;;;143728;587;46012;-69
2022/02/21 09:47:07;;;;;;;15.75;8.48;;;;;;;;;;143728;616;46022;-68
2022/02/21 09:49:34;;;;;;;21.65;9.80;;;;;;;;;;143734;618;46021;-68
2022/02/21 09:52:01;;;;;;;20.70;9.18;;;;;;;;;;143725;616;46010;-68
2022/02/21 09:54:28;;;;;;;18.12;9.82;;;;;;;;;;143728;611;45020;-68
2022/02/21 09:56:55;;;;;;;15.27;8.98;;;;;;;;;;143727;574;46021;-68
2022/02/21 09:59:22;;;;;;;17.05;9.43;;;;;;;;;;143727;590;46020;-68
2022/02/21 10:01:51;;;;;;;16.48;8.70;;;;;;;;;;143725;657;46010;-70
2022/02/21 10:04:27;;;;;;;22.73;10.43;;;;;;;;;;143728;600;45021;-70
2022/02/21 10:06:56;;;;;;;22.08;10.55;;;;;;;;;;143729;635;46020;-68
2022/02/21 10:09:27;;;;;;;15.82;9.43;;;;;;;;;;143727;570;46020;-67
2022/02/21 10:11:59;;;;;;;21.12;10.80;;;;;;;;;;143726;599;46010;-67
2022/02/21 10:14:30;;;;;;;20.25;9.20;;;;;;;;;;143728;564;46020;-68
2022/02/21 10:17:02;;;;;;;21.55;9.95;;;;;;;;;;143729;572;46020;-69
2022/02/21 10:19:36;;;;;;;16.58;9.10;;;;;;;;;;143727;601;46021;-70
2022/02/21 10:22:14;;;;;;;14.55;8.90;;;;;;;;;;143725;571;46010;-68
2022/02/21 10:24:49;;;;;;;15.80;9.07;;;;;;;;;;143728;615;45908;-69
2022/02/21 10:27:18;;;;;;;19.87;9.77;;;;;;;;;;143729;569;46021;-68
2022/02/21 10:29:53;;;;;;;12.60;8.82;;;;;;;;;;143725;603;47020;-69
2022/02/21 10:32:25;;;;;;;16.40;8.90;;;;;;;;;;143725;569;46010;-68
2022/02/21 10:34:54;;;;;;;15.27;8.18;;;;;;;;;;143729;569;45021;-68
2022/02/21 10:37:30;;;;;;;13.38;8.38;;;;;;;;;;143730;583;46020;-68
2022/02/21 10:40:11;;;;;;;11.05;6.97;;;;;;;;;;143727;570;46020;-69
2022/02/21 10:42:40;;;;;;;13.15;7.28;;;;;;;;;;143725;589;46010;-69
2022/02/21 10:45:18;;;;;;;22.45;11.63;;;;;;;;;;143729;745;45020;-68
2022/02/21 10:48:21;;;;;;;15.35;8.85;;;;;;;;;;143728;570;46020;-70
2022/02/21 10:50:59;;;;;;;31.73;17.08;;;;;;;;;;143728;565;46020;-68
2022/02/21 10:53:44;;;;;;;26.00;16.05;;;;;;;;;;143725;671;46010;-68
2022/02/21 10:56:13;;;;;;;21.58;13.02;;;;;;;;;;143726;572;45936;-68
2022/02/21 10:58:40;;;;;;;16.58;8.98;;;;;;;;;;143729;616;46020;-68
2022/02/21 11:01:09;;;;;;;17.58;8.20;;;;;;;;;;143724;615;47042;-69
2022/02/21 11:03:36;;;;;;;18.75;9.57;;;;;;;;;;143724;684;46013;-67
2022/02/21 11:06:05;;;;;;;21.10;12.00;;;;;;;;;;143729;608;45021;-69
2022/02/21 11:08:32;;;;;;;16.52;10.38;;;;;;;;;;143728;569;46020;-68
2022/02/21 11:11:04;;;;;;;12.63;7.70;;;;;;;;;;143727;582;46022;-68
2022/02/21 11:13:33;;;;;;;17.40;9.93;;;;;;;;;;143725;589;46012;-69
2022/02/21 11:16:01;;;;;;;17.33;8.20;;;;;;;;;;143726;623;46020;-70
2022/02/21 11:18:29;;;;;;;17.05;9.27;;;;;;;;;;143728;584;46021;-70
2022/02/21 11:20:57;;;;;;;27.62;9.32;;;;;;;;;;143727;589;46020;-71
2022/02/21 11:23:25;;;;;;;18.20;10.55;;;;;;;;;;143726;608;45918;-72
2022/02/21 11:26:15;;;;;;;21.67;10.27;;;;;;;;;;143729;617;45021;-69
2022/02/21 11:29:21;;;;;;;19.37;8.77;;;;;;;;;;143729;578;46020;-71
2022/02/21 11:31:48;;;;;;;25.42;9.27;;;;;;;;;;143728;587;45910;-70
2022/02/21 11:34:16;;;;;;;18.83;8.57;;;;;;;;;;143724;569;46013;-69
2022/02/21 11:36:47;;;;;;;17.98;7.87;;;;;;;;;;143726;579;46014;-71
2022/02/21 11:39:33;;;;;;;19.23;8.13;;;;;;;;;;143729;584;46020;-70
2022/02/21 11:42:19;;;;;;;11.80;6.97;;;;;;;;;;143728;581;46021;-69
2022/02/21 11:44:54;;;;;;;28.83;8.43;;;;;;;;;;143725;592;46012;-68
2022/02/21 11:47:46;;;;;;;16.17;7.28;;;;;;;;;;143727;584;45020;-70
2022/02/21 11:50:28;;;;;;;16.02;7.95;;;;;;;;;;143727;660;46021;-69
2022/02/21 11:52:59;;;;;;;14.43;8.15;;;;;;;;;;143726;586;46020;-69
2022/02/21 11:55:38;;;;;;;20.55;9.32;;;;;;;;;;143725;575;46013;-69
2022/02/21 11:58:37;;;;;;;16.48;8.23;;;;;;;;;;143728;567;45021;-70
2022/02/21 12:01:11;;;;;;;14.70;8.02;;;;;;;;;;143728;574;46020;-69
2022/02/21 12:03:38;;;;;;;15.05;7.70;;;;;;;;;;143722;573;47014;-70
2022/02/21 12:06:26;;;;;;;18.30;7.40;;;;;;;;;;143724;607;46012;-68
2022/02/21 12:08:54;;;;;;;15.48;8.25;;;;;;;;;;143728;587;45022;-70
2022/02/21 12:11:21;;;;;;;16.30;7.82;;;;;;;;;;143728;581;46021;-68
2022/02/21 12:14:17;;;;;;;17.37;8.27;;;;;;;;;;143724;664;46020;-68
2022/02/21 12:17:03;;;;;;;14.40;9.05;;;;;;;;;;143725;593;46012;-70
2022/02/21 12:19:34;;;;;;;14.87;8.27;;;;;;;;;;143730;586;45021;-69
2022/02/21 12:22:16;;;;;;;11.35;7.22;;;;;;;;;;143729;595;46020;-69
2022/02/21 12:25:12;;;;;;;14.07;7.78;;;;;;;;;;143726;612;46022;-70
2022/02/21 12:28:15;;;;;;;14.27;7.87;;;;;;;;;;143725;632;46012;-68
2022/02/21 12:30:48;;;;;;;13.90;8.38;;;;;;;;;;143728;564;45022;-68
2022/02/21 12:33:44;;;;;;;18.10;9.85;;;;;;;;;;143728;608;46020;-69
2022/02/21 12:36:11;;;;;;;23.83;11.52;;;;;;;;;;143726;620;46020;-68
2022/02/21 12:38:42;;;;;;;35.35;12.88;;;;;;;;;;143725;617;46012;-70
2022/02/21 12:41:14;;;;;;;21.90;11.35;;;;;;;;;;143726;588;46021;-68
2022/02/21 12:44:08;;;;;;;18.08;9.98;;;;;;;;;;143730;598;46020;-68
2022/02/21 12:46:54;;;;;;;20.35;9.50;;;;;;;;;;143730;570;46020;-67
2022/02/21 12:49:25;;;;;;;25.65;17.02;;;;;;;;;;143725;606;46013;-69
2022/02/21 12:52:13;;;;;;;35.63;16.80;;;;;;;;;;143729;609;45020;-69
2022/02/21 12:55:08;;;;;;;26.48;16.90;;;;;;;;;;143729;583;46021;-68
2022/02/21 12:57:40;;;;;;;;;;;;;;;;;;143731;981;46025;-68
2022/02/21 13:00:08;;;;;;;26.10;13.32;;;;;;;;;;143731;585;46012;-69
2022/02/21 13:02:35;;;;;;;27.52;15.98;;;;;;;;;;143727;558;46036;-68
2022/02/21 13:05:02;;;;;;;21.33;13.88;;;;;;;;;;143728;583;46027;-67
2022/02/21 13:07:29;;;;;;;23.00;12.63;;;;;;;;;;143724;605;47018;-68
2022/02/21 13:10:05;;;;;;;37.92;10.15;;;;;;;;;;143725;618;46013;-67
2022/02/21 13:12:32;;;;;;;18.85;11.20;;;;;;;;;;143728;630;46012;-67
2022/02/21 13:14:58;;;;;;;17.83;10.02;;;;;;;;;;143728;622;45026;-70
2022/02/21 13:17:25;;;;;;;21.92;8.75;;;;;;;;;;143726;620;46020;-68
2022/02/21 13:19:53;;;;;;;18.08;8.93;;;;;;;;;;143725;597;46012;-68
2022/02/21 13:22:30;;;;;;;18.02;10.23;;;;;;;;;;143729;593;45018;-69
2022/02/21 13:24:58;;;;;;;15.82;8.98;;;;;;;;;;143730;612;46023;-68
2022/02/21 13:27:27;;;;;;;13.15;7.53;;;;;;;;;;143726;615;46021;-68
2022/02/21 13:29:56;;;;;;;14.15;8.48;;;;;;;;;;143725;605;46012;-68
2022/02/21 13:32:33;;;;;;;15.30;7.40;;;;;;;;;;143728;617;45019;-68
2022/02/21 13:35:19;;;;;;;13.30;7.68;;;;;;;;;;143730;602;46023;-67
2022/02/21 13:37:48;;;;;;;13.50;8.05;;;;;;;;;;143729;594;46018;-68
2022/02/21 13:40:24;;;;;;;11.70;6.68;;;;;;;;;;143724;605;46918;-67
2022/02/21 13:43:00;;;;;;;14.43;7.37;;;;;;;;;;143730;625;45018;-67
2022/02/21 13:45:35;;;;;;;11.38;6.87;;;;;;;;;;143728;622;46022;-68
2022/02/21 13:48:10;;;;;;;14.43;6.75;;;;;;;;;;143727;584;46019;-67
2022/02/21 13:50:57;;;;;;;12.37;6.18;;;;;;;;;;143726;597;46012;-67
2022/02/21 13:53:34;;;;;;;21.70;6.97;;;;;;;;;;143727;587;46012;-68
2022/02/21 13:56:13;;;;;;;11.05;6.70;;;;;;;;;;143730;612;46023;-68
2022/02/21 13:59:06;;;;;;;13.80;6.37;;;;;;;;;;143728;598;46020;-68
2022/02/21 14:01:34;;;;;;;15.98;7.15;;;;;;;;;;143727;591;46012;-67
2022/02/21 14:04:08;;;;;;;10.50;6.28;;;;;;;;;;143730;564;45019;-68
2022/02/21 14:06:39;;;;;;;12.63;6.60;;;;;;;;;;143728;576;46022;-68
2022/02/21 14:09:20;;;;;;;9.30;5.28;;;;;;;;;;143727;626;46019;-67
2022/02/21 14:11:47;;;;;;;12.88;6.35;;;;;;;;;;143725;631;46013;-67
2022/02/21 14:14:16;;;;;;;11.02;5.78;;;;;;;;;;143729;613;45020;-68
2022/02/21 14:16:44;;;;;;;12.00;5.30;;;;;;;;;;143729;594;46020;-68
2022/02/21 14:19:14;;;;;;;10.43;6.45;;;;;;;;;;143727;576;47018;-67
2022/02/21 14:21:41;;;;;;;9.82;5.37;;;;;;;;;;143725;710;46012;-67
2022/02/21 14:24:07;;;;;;;8.43;5.32;;;;;;;;;;143729;775;46012;-67
2022/02/21 14:26:35;;;;;;;15.77;5.78;;;;;;;;;;143731;661;46023;-68
2022/02/21 14:29:02;;;;;;;9.07;5.47;;;;;;;;;;143726;573;46018;-67
2022/02/21 14:31:29;;;;;;;11.25;5.72;;;;;;;;;;143727;619;46013;-67
2022/02/21 14:33:56;;;;;;;11.88;5.97;;;;;;;;;;143728;595;45019;-66
2022/02/21 14:36:23;;;;;;;12.05;6.03;;;;;;;;;;143729;666;46022;-66
2022/02/21 14:38:50;;;;;;;9.13;5.55;;;;;;;;;;143726;607;46019;-67
2022/02/21 14:41:17;;;;;;;10.02;5.80;;;;;;;;;;143726;591;46012;-66
2022/02/21 14:43:44;;;;;;;16.83;6.07;;;;;;;;;;143729;686;45018;-67
2022/02/21 14:46:13;;;;;;;21.27;6.40;;;;;;;;;;143730;567;46022;-67